createdAt,value
2023-02-25T00:00:30.319Z,100.00
2023-02-25T00:03:02.712Z,100.00
2023-02-25T00:05:38.761Z,100.00
2023-02-25T00:08:11.115Z,100.00
2023-02-25T00:10:43.467Z,100.00
2023-02-25T00:13:18.308Z,100.00
2023-02-25T00:15:51.588Z,100.00
2023-02-25T00:18:24.066Z,100.00
2023-02-25T00:20:56.792Z,100.00
2023-02-25T00:23:29.473Z,100.00
2023-02-25T00:26:04.698Z,100.00
2023-02-25T00:28:39.272Z,100.00
2023-02-25T00:31:14.686Z,100.00
2023-02-25T00:33:47.659Z,100.00
2023-02-25T00:36:22.941Z,100.00
2023-02-25T00:38:56.985Z,100.00
2023-02-25T00:41:30.180Z,100.00
2023-02-25T00:44:03.412Z,99.69
2023-02-25T00:46:36.526Z,98.49
2023-02-25T00:49:08.900Z,97.00
2023-02-25T00:51:41.389Z,96.27
2023-02-25T00:54:13.696Z,96.91
2023-02-25T00:56:46.805Z,96.86
2023-02-25T00:59:19.127Z,95.96
2023-02-25T01:01:52.395Z,95.26
2023-02-25T01:04:25.179Z,95.16
2023-02-25T01:06:58.103Z,95.01
2023-02-25T01:09:31.284Z,94.85
2023-02-25T01:12:04.013Z,95.05
2023-02-25T01:14:36.663Z,94.75
2023-02-25T01:17:10.590Z,94.09
2023-02-25T01:19:43.081Z,95.15
2023-02-25T01:22:15.513Z,92.24
2023-02-25T01:24:47.899Z,91.85
2023-02-25T01:27:20.261Z,88.87
2023-02-25T01:29:52.624Z,84.86
2023-02-25T01:32:25.859Z,82.35
2023-02-25T01:34:59.102Z,82.72
2023-02-25T01:37:31.478Z,82.66
2023-02-25T01:40:05.704Z,84.94
2023-02-25T01:42:40.064Z,85.05
2023-02-25T01:45:28.182Z,83.75
2023-02-25T01:48:08.596Z,84.57
2023-02-25T01:50:45.535Z,84.96
2023-02-25T01:53:23.421Z,84.83
2023-02-25T01:55:58.086Z,84.71
2023-02-25T01:58:32.304Z,85.98
2023-02-25T02:01:09.500Z,81.55
2023-02-25T02:03:43.241Z,83.47
2023-02-25T02:06:18.229Z,83.48
2023-02-25T02:08:52.743Z,83.91
2023-02-25T02:11:25.100Z,85.88
2023-02-25T02:13:59.052Z,87.10
2023-02-25T02:16:47.992Z,85.85
2023-02-25T02:19:33.881Z,86.31
2023-02-25T02:22:12.365Z,86.88
2023-02-25T02:25:17.165Z,85.82
2023-02-25T02:28:15.892Z,89.39
2023-02-25T02:31:22.571Z,88.80
2023-02-25T02:34:05.524Z,89.90
2023-02-25T02:36:47.201Z,90.23
2023-02-25T02:39:26.286Z,90.70
2023-02-25T02:42:06.810Z,89.40
2023-02-25T02:44:46.191Z,89.16
2023-02-25T02:47:25.282Z,89.32
2023-02-25T02:50:02.258Z,88.92
2023-02-25T02:52:39.258Z,87.69
2023-02-25T02:55:21.477Z,88.06
2023-02-25T02:57:59.681Z,89.23
2023-02-25T03:00:39.825Z,88.72
2023-02-25T03:03:17.598Z,87.39
2023-02-25T03:05:53.009Z,87.49
2023-02-25T03:08:28.454Z,85.82
2023-02-25T03:11:01.343Z,85.44
2023-02-25T03:13:33.710Z,86.66
2023-02-25T03:16:11.033Z,86.32
2023-02-25T03:18:51.012Z,86.59
2023-02-25T03:21:25.747Z,86.03
2023-02-25T03:23:59.132Z,86.68
2023-02-25T03:26:33.548Z,84.94
2023-02-25T03:29:15.146Z,86.58
2023-02-25T03:31:51.647Z,88.52
2023-02-25T03:34:30.330Z,90.95
2023-02-25T03:37:05.856Z,88.33
2023-02-25T03:39:43.063Z,86.36
2023-02-25T03:42:19.781Z,85.63
2023-02-25T03:44:54.896Z,85.38
2023-02-25T03:47:29.676Z,86.43
2023-02-25T03:50:09.074Z,84.96
2023-02-25T03:52:42.885Z,84.75
2023-02-25T03:55:29.802Z,85.27
2023-02-25T03:58:02.236Z,83.89
2023-02-25T04:00:35.444Z,83.37
2023-02-25T04:03:07.872Z,83.80
2023-02-25T04:05:40.880Z,84.61
2023-02-25T04:08:15.418Z,84.16
2023-02-25T04:10:48.553Z,86.11
2023-02-25T04:13:23.273Z,85.49
2023-02-25T04:15:55.785Z,87.45
2023-02-25T04:18:28.192Z,87.77
2023-02-25T04:21:01.330Z,88.13
2023-02-25T04:23:33.980Z,86.89
2023-02-25T04:26:06.280Z,85.53
2023-02-25T04:28:38.605Z,88.54
2023-02-25T04:31:10.959Z,89.74
2023-02-25T04:33:43.499Z,91.20
2023-02-25T04:36:25.925Z,90.82
2023-02-25T04:38:59.507Z,89.86
2023-02-25T04:41:34.361Z,89.39
2023-02-25T04:44:08.078Z,88.74
2023-02-25T04:46:42.558Z,88.45
2023-02-25T04:49:15.200Z,87.92
2023-02-25T04:51:50.694Z,88.06
2023-02-25T04:54:23.039Z,87.01
2023-02-25T04:56:55.705Z,86.50
2023-02-25T04:59:28.006Z,85.54
2023-02-25T05:02:00.443Z,84.96
2023-02-25T05:04:32.876Z,84.70
2023-02-25T05:07:07.063Z,84.81
2023-02-25T05:09:39.412Z,84.38
2023-02-25T05:12:11.730Z,85.68
2023-02-25T05:14:44.164Z,84.95
2023-02-25T05:17:16.632Z,84.70
2023-02-25T05:19:48.945Z,85.26
2023-02-25T05:22:22.167Z,82.41
2023-02-25T05:24:54.490Z,82.00
2023-02-25T05:27:26.823Z,81.68
2023-02-25T05:29:59.205Z,81.26
2023-02-25T05:32:31.839Z,81.36
2023-02-25T05:35:04.873Z,82.75
2023-02-25T05:37:38.222Z,82.85
2023-02-25T05:40:13.299Z,80.98
2023-02-25T05:42:48.779Z,80.19
2023-02-25T05:45:21.144Z,82.03
2023-02-25T05:47:53.433Z,82.12
2023-02-25T05:50:25.792Z,80.46
2023-02-25T05:52:58.869Z,82.14
2023-02-25T05:55:31.219Z,86.41
2023-02-25T05:58:03.574Z,81.54
2023-02-25T06:00:36.567Z,83.88
2023-02-25T06:03:08.904Z,82.74
2023-02-25T06:05:41.693Z,80.88
2023-02-25T06:08:14.739Z,80.56
2023-02-25T06:10:47.057Z,81.60
2023-02-25T06:13:19.311Z,81.34
2023-02-25T06:15:51.953Z,82.00
2023-02-25T06:18:24.255Z,78.38
2023-02-25T06:21:02.076Z,76.99
2023-02-25T06:23:36.559Z,77.21
2023-02-25T06:26:11.483Z,76.88
2023-02-25T06:28:44.373Z,75.79
2023-02-25T06:31:18.345Z,75.85
2023-02-25T06:33:51.099Z,73.50
2023-02-25T06:36:23.898Z,73.78
2023-02-25T06:38:57.429Z,73.21
2023-02-25T06:41:30.086Z,73.27
2023-02-25T06:44:03.573Z,72.32
2023-02-25T06:46:35.862Z,72.38
2023-02-25T06:49:08.166Z,70.69
2023-02-25T06:51:40.470Z,71.28
2023-02-25T06:54:13.473Z,69.43
2023-02-25T06:56:46.052Z,69.74
2023-02-25T06:59:18.430Z,68.11
2023-02-25T07:01:50.730Z,67.51
2023-02-25T07:04:23.106Z,67.08
2023-02-25T07:06:55.738Z,66.28
2023-02-25T07:09:28.719Z,65.66
2023-02-25T07:12:01.534Z,65.62
2023-02-25T07:14:33.840Z,65.79
2023-02-25T07:17:06.271Z,64.97
2023-02-25T07:19:38.565Z,65.39
2023-02-25T07:22:14.405Z,64.47
2023-02-25T07:24:47.387Z,62.66
2023-02-25T07:27:19.782Z,62.75
2023-02-25T07:29:52.174Z,61.12
2023-02-25T07:32:25.195Z,61.57
2023-02-25T07:34:57.629Z,60.72
2023-02-25T07:37:30.181Z,59.95
2023-02-25T07:40:03.539Z,58.72
2023-02-25T07:42:36.057Z,59.32
2023-02-25T07:45:12.345Z,58.21
2023-02-25T07:47:45.301Z,57.26
2023-02-25T07:50:17.757Z,57.02
2023-02-25T07:52:50.057Z,55.60
2023-02-25T07:55:23.096Z,56.53
2023-02-25T07:57:55.629Z,56.00
2023-02-25T08:00:27.983Z,56.06
2023-02-25T08:03:00.931Z,54.88
2023-02-25T08:05:33.661Z,53.70
2023-02-25T08:08:06.220Z,53.79
2023-02-25T08:10:39.249Z,53.81
2023-02-25T08:13:11.575Z,52.88
2023-02-25T08:15:44.272Z,52.19
2023-02-25T08:18:16.719Z,51.02
2023-02-25T08:20:49.041Z,50.28
2023-02-25T08:23:22.627Z,50.51
2023-02-25T08:25:57.091Z,49.36
2023-02-25T08:28:33.834Z,49.13
2023-02-25T08:31:11.364Z,49.08
2023-02-25T08:33:48.660Z,48.86
2023-02-25T08:36:23.389Z,49.16
2023-02-25T08:38:56.863Z,48.76
2023-02-25T08:41:30.237Z,49.29
2023-02-25T08:44:03.701Z,48.32
2023-02-25T08:46:38.285Z,48.48
2023-02-25T08:49:11.129Z,48.37
2023-02-25T08:51:43.429Z,48.46
2023-02-25T08:54:15.730Z,48.42
2023-02-25T08:56:50.512Z,48.73
2023-02-25T08:59:22.841Z,48.78
2023-02-25T09:01:55.088Z,48.36
2023-02-25T09:04:27.579Z,49.11
2023-02-25T09:07:00.953Z,48.09
2023-02-25T09:09:33.447Z,48.37
2023-02-25T09:12:07.036Z,48.70
2023-02-25T09:14:39.375Z,48.11
2023-02-25T09:17:11.660Z,48.10
2023-02-25T09:19:43.961Z,48.04
2023-02-25T09:22:16.305Z,48.02
2023-02-25T09:24:48.633Z,48.24
2023-02-25T09:27:21.539Z,48.09
2023-02-25T09:29:53.852Z,48.61
2023-02-25T09:32:26.294Z,48.05
2023-02-25T09:35:06.585Z,48.38
2023-02-25T09:37:38.955Z,48.30
2023-02-25T09:40:18.092Z,47.89
2023-02-25T09:43:03.197Z,48.30
2023-02-25T09:45:36.530Z,48.54
2023-02-25T09:48:17.190Z,48.85
2023-02-25T09:50:53.119Z,48.43
2023-02-25T09:53:31.366Z,48.88
2023-02-25T09:56:06.456Z,49.09
2023-02-25T09:58:43.637Z,48.89
2023-02-25T10:01:26.267Z,48.56
2023-02-25T10:04:05.876Z,48.78
2023-02-25T10:06:44.093Z,48.41
2023-02-25T10:09:28.340Z,48.92
2023-02-25T10:12:09.787Z,49.14
2023-02-25T10:15:00.079Z,48.29
2023-02-25T10:17:43.583Z,48.46
2023-02-25T10:20:42.549Z,48.65
2023-02-25T10:23:34.794Z,48.32
2023-02-25T10:26:17.581Z,48.73
2023-02-25T10:28:54.387Z,48.79
2023-02-25T10:31:30.502Z,48.45
2023-02-25T10:34:19.644Z,48.21
2023-02-25T10:36:55.207Z,47.54
2023-02-25T10:39:28.798Z,47.45
2023-02-25T10:42:01.446Z,48.14
2023-02-25T10:44:34.974Z,48.40
2023-02-25T10:47:14.440Z,48.47
2023-02-25T10:50:13.310Z,48.73
2023-02-25T10:52:58.728Z,48.65
2023-02-25T10:55:56.739Z,48.52
2023-02-25T10:58:40.035Z,48.67
2023-02-25T11:01:14.980Z,48.30
2023-02-25T11:03:54.864Z,48.73
2023-02-25T11:06:29.134Z,48.39
2023-02-25T11:09:04.620Z,48.66
2023-02-25T11:11:37.873Z,48.48
2023-02-25T11:14:18.042Z,48.49
2023-02-25T11:16:50.559Z,48.43
2023-02-25T11:19:28.833Z,48.65
2023-02-25T11:22:09.279Z,48.85
2023-02-25T11:24:42.657Z,48.73
2023-02-25T11:27:26.685Z,48.53
2023-02-25T11:30:03.975Z,48.97
2023-02-25T11:32:42.630Z,48.90
2023-02-25T11:35:18.624Z,48.92
2023-02-25T11:37:54.050Z,49.45
2023-02-25T11:40:28.537Z,49.55
2023-02-25T11:43:16.280Z,49.47
2023-02-25T11:45:52.744Z,49.69
2023-02-25T11:48:29.430Z,50.07
2023-02-25T11:51:16.658Z,50.14
2023-02-25T11:54:12.012Z,50.34
2023-02-25T11:56:50.680Z,50.61
2023-02-25T11:59:36.417Z,50.63
2023-02-25T12:02:32.945Z,50.77
2023-02-25T12:05:36.285Z,50.91
2023-02-25T12:08:39.412Z,51.24
2023-02-25T12:11:53.208Z,50.94
2023-02-25T12:15:02.575Z,51.59
2023-02-25T12:18:08.088Z,51.11
2023-02-25T12:21:12.505Z,51.23
2023-02-25T12:24:28.440Z,51.11
2023-02-25T12:27:38.442Z,51.29
2023-02-25T12:30:23.609Z,51.56
2023-02-25T12:33:13.193Z,51.23
2023-02-25T12:36:12.355Z,51.14
2023-02-25T12:39:10.630Z,51.33
2023-02-25T12:41:47.320Z,51.06
2023-02-25T12:44:47.618Z,51.37
2023-02-25T12:47:30.000Z,51.25
2023-02-25T12:50:33.733Z,51.06
2023-02-25T12:53:26.957Z,50.56
2023-02-25T12:56:34.566Z,50.97
2023-02-25T12:59:46.824Z,50.91
2023-02-25T13:02:44.029Z,50.84
2023-02-25T13:05:52.273Z,50.84
2023-02-25T13:08:46.514Z,50.90
2023-02-25T13:11:31.216Z,50.45
2023-02-25T13:14:23.967Z,50.45
2023-02-25T13:17:24.548Z,50.33
2023-02-25T13:20:26.833Z,50.26
2023-02-25T13:23:11.960Z,49.88
2023-02-25T13:25:58.988Z,50.02
2023-02-25T13:29:01.232Z,49.37
2023-02-25T13:31:44.165Z,49.35
2023-02-25T13:34:29.756Z,49.24
2023-02-25T13:37:18.259Z,49.20
2023-02-25T13:40:11.473Z,49.05
2023-02-25T13:43:13.334Z,48.64
2023-02-25T13:46:28.397Z,49.38
2023-02-25T13:49:20.236Z,48.56
2023-02-25T13:52:24.476Z,49.23
2023-02-25T13:55:31.674Z,49.07
2023-02-25T13:58:25.431Z,49.57
2023-02-25T14:01:12.436Z,49.65
2023-02-25T14:04:11.074Z,49.71
2023-02-25T14:07:05.278Z,50.06
2023-02-25T14:09:45.857Z,50.34
2023-02-25T14:12:33.093Z,50.78
2023-02-25T14:15:37.165Z,50.59
2023-02-25T14:18:31.650Z,50.85
2023-02-25T14:21:16.924Z,50.71
2023-02-25T14:23:58.255Z,51.06
2023-02-25T14:26:38.290Z,51.36
2023-02-25T14:29:20.815Z,51.39
2023-02-25T14:32:16.360Z,50.56
2023-02-25T14:35:05.627Z,50.90
2023-02-25T14:37:45.931Z,51.01
2023-02-25T14:40:31.274Z,51.26
2023-02-25T14:43:26.468Z,50.85
2023-02-25T14:46:07.073Z,51.11
2023-02-25T14:48:46.244Z,51.10
2023-02-25T14:51:44.954Z,51.55
2023-02-25T14:54:53.253Z,51.61
2023-02-25T14:58:06.816Z,51.65
2023-02-25T15:01:10.718Z,51.57
2023-02-25T15:04:05.011Z,51.67
2023-02-25T15:06:50.363Z,52.28
2023-02-25T15:09:55.239Z,52.11
2023-02-25T15:12:58.847Z,52.91
2023-02-25T15:15:47.082Z,53.11
2023-02-25T15:18:57.611Z,53.32
2023-02-25T15:21:36.937Z,53.79
2023-02-25T15:24:31.804Z,53.61
2023-02-25T15:27:41.514Z,54.45
2023-02-25T15:30:14.738Z,54.37
2023-02-25T15:33:05.298Z,54.78
2023-02-25T15:35:59.054Z,54.79
2023-02-25T15:38:45.415Z,54.59
2023-02-25T15:41:40.117Z,54.22
2023-02-25T15:44:36.990Z,54.21
2023-02-25T15:47:24.106Z,54.45
2023-02-25T15:49:57.638Z,54.50
2023-02-25T15:52:55.950Z,54.14
2023-02-25T15:55:37.297Z,53.99
2023-02-25T15:58:50.983Z,54.26
2023-02-25T16:01:30.179Z,54.22
2023-02-25T16:04:22.912Z,54.54
2023-02-25T16:06:57.551Z,54.41
2023-02-25T16:09:32.008Z,54.56
2023-02-25T16:12:06.968Z,54.57
2023-02-25T16:14:40.258Z,54.32
2023-02-25T16:17:18.641Z,54.48
2023-02-25T16:19:54.336Z,54.36
2023-02-25T16:22:28.400Z,54.70
2023-02-25T16:25:03.215Z,54.79
2023-02-25T16:27:51.693Z,54.68
2023-02-25T16:30:29.726Z,54.92
2023-02-25T16:33:11.411Z,55.24
2023-02-25T16:35:55.350Z,55.56
2023-02-25T16:38:44.767Z,55.54
2023-02-25T16:41:17.829Z,56.41
2023-02-25T16:43:50.284Z,56.63
2023-02-25T16:46:27.909Z,56.87
2023-02-25T16:49:01.731Z,57.07
2023-02-25T16:51:36.625Z,57.05
2023-02-25T16:54:13.764Z,57.50
2023-02-25T16:56:50.540Z,57.47
2023-02-25T16:59:23.468Z,57.85
2023-02-25T17:01:58.752Z,57.77
2023-02-25T17:04:33.609Z,57.79
2023-02-25T17:07:10.618Z,57.58
2023-02-25T17:09:45.169Z,57.78
2023-02-25T17:12:22.252Z,57.97
2023-02-25T17:14:55.542Z,57.99
2023-02-25T17:17:32.312Z,58.01
2023-02-25T17:20:08.443Z,58.54
2023-02-25T17:22:41.213Z,58.46
2023-02-25T17:25:15.657Z,58.36
2023-02-25T17:27:50.306Z,58.46
2023-02-25T17:30:39.177Z,58.49
2023-02-25T17:33:20.996Z,58.46
2023-02-25T17:35:57.323Z,58.38
2023-02-25T17:38:29.903Z,59.03
2023-02-25T17:41:02.744Z,59.25
2023-02-25T17:43:37.582Z,59.33
2023-02-25T17:46:24.661Z,59.33
2023-02-25T17:48:59.315Z,59.71
2023-02-25T17:51:34.275Z,59.87
2023-02-25T17:54:09.024Z,59.63
2023-02-25T17:56:41.585Z,60.15
2023-02-25T17:59:34.860Z,60.35
2023-02-25T18:02:30.118Z,60.14
2023-02-25T18:05:29.558Z,60.81
2023-02-25T18:08:17.456Z,60.70
2023-02-25T18:10:55.746Z,60.89
2023-02-25T18:13:34.387Z,60.93
2023-02-25T18:16:48.244Z,60.35
2023-02-25T18:19:35.199Z,60.95
2023-02-25T18:29:11.982Z,62.10
2023-02-25T18:31:44.641Z,62.49
2023-02-25T18:34:16.989Z,62.92
2023-02-25T18:36:49.408Z,62.99
2023-02-25T18:39:24.957Z,63.03
2023-02-25T18:41:57.317Z,63.16
2023-02-25T18:44:30.315Z,63.25
2023-02-25T18:47:02.685Z,64.18
2023-02-25T18:49:35.034Z,64.68
2023-02-25T18:52:19.488Z,64.87
2023-02-25T18:54:51.972Z,66.17
2023-02-25T18:57:25.792Z,66.29
2023-02-25T18:59:59.180Z,66.30
2023-02-25T19:02:34.263Z,66.79
2023-02-25T19:05:07.073Z,66.84
2023-02-25T19:07:39.694Z,66.81
2023-02-25T19:10:17.442Z,67.23
2023-02-25T19:12:53.309Z,68.13
2023-02-25T19:15:26.357Z,67.98
2023-02-25T19:17:58.778Z,68.44
2023-02-25T19:20:31.244Z,68.98
2023-02-25T19:23:04.286Z,68.86
2023-02-25T19:25:37.205Z,68.29
2023-02-25T19:28:10.167Z,68.69
2023-02-25T19:30:43.518Z,69.10
2023-02-25T19:33:16.023Z,68.07
2023-02-25T19:35:48.390Z,68.38
2023-02-25T19:38:20.707Z,69.13
2023-02-25T19:40:53.710Z,69.71
2023-02-25T19:43:26.001Z,69.54
2023-02-25T19:45:59.017Z,70.15
2023-02-25T19:48:31.297Z,70.48
2023-02-25T19:51:08.033Z,71.10
2023-02-25T19:53:40.287Z,71.14
2023-02-25T19:56:12.660Z,71.50
2023-02-25T19:58:44.983Z,71.26
2023-02-25T20:01:18.272Z,71.90
2023-02-25T20:03:50.742Z,71.50
2023-02-25T20:06:25.363Z,71.65
2023-02-25T20:09:00.466Z,71.08
2023-02-25T20:11:33.000Z,71.66
2023-02-25T20:14:06.001Z,71.53
2023-02-25T20:16:39.988Z,71.07
2023-02-25T20:19:12.334Z,70.71
2023-02-25T20:21:44.661Z,71.06
2023-02-25T20:24:17.104Z,70.88
2023-02-25T20:26:49.505Z,71.45
2023-02-25T20:29:22.235Z,70.56
2023-02-25T20:31:56.928Z,70.47
2023-02-25T20:34:31.183Z,70.50
2023-02-25T20:37:10.049Z,69.99
2023-02-25T20:39:50.022Z,69.90
2023-02-25T20:42:25.162Z,70.61
2023-02-25T20:44:58.815Z,69.75
2023-02-25T20:47:35.375Z,69.72
2023-02-25T20:50:09.097Z,69.55
2023-02-25T20:52:41.661Z,68.91
2023-02-25T20:55:14.225Z,68.06
2023-02-25T20:57:46.497Z,67.87
2023-02-25T21:00:19.859Z,67.17
2023-02-25T21:02:53.090Z,66.52
2023-02-25T21:05:25.421Z,65.66
2023-02-25T21:07:57.696Z,65.17
2023-02-25T21:10:29.992Z,64.71
2023-02-25T21:13:02.317Z,64.06
2023-02-25T21:15:35.867Z,63.30
2023-02-25T21:18:08.905Z,62.66
2023-02-25T21:20:41.319Z,62.18
2023-02-25T21:23:13.592Z,61.83
2023-02-25T21:25:46.364Z,61.75
2023-02-25T21:28:18.683Z,61.48
2023-02-25T21:30:51.913Z,61.57
2023-02-25T21:33:24.971Z,60.67
2023-02-25T21:35:57.365Z,60.85
2023-02-25T21:38:29.890Z,60.71
2023-02-25T21:41:06.151Z,60.61
2023-02-25T21:43:39.442Z,60.70
2023-02-25T21:46:14.704Z,60.27
2023-02-25T21:48:49.799Z,60.52
2023-02-25T21:51:24.520Z,59.48
2023-02-25T21:53:59.015Z,58.83
2023-02-25T21:56:32.318Z,58.18
2023-02-25T21:59:05.942Z,58.66
2023-02-25T22:01:40.065Z,58.10
2023-02-25T22:04:13.332Z,58.67
2023-02-25T22:06:48.146Z,59.25
2023-02-25T22:09:20.412Z,59.42
2023-02-25T22:11:52.694Z,59.36
2023-02-25T22:14:25.504Z,59.36
2023-02-25T22:16:57.842Z,59.60
2023-02-25T22:19:30.777Z,60.21
2023-02-25T22:22:03.115Z,60.09
2023-02-25T22:24:35.509Z,60.54
2023-02-25T22:27:07.951Z,60.82
2023-02-25T22:29:40.270Z,60.74
2023-02-25T22:32:12.654Z,60.93
2023-02-25T22:34:45.840Z,61.32
2023-02-25T22:37:18.100Z,61.93
2023-02-25T22:39:50.403Z,61.69
2023-02-25T22:42:23.815Z,61.20
2023-02-25T22:44:56.117Z,61.89
2023-02-25T22:47:28.456Z,62.20
2023-02-25T22:50:01.434Z,63.16
2023-02-25T22:52:34.010Z,63.14
2023-02-25T22:55:07.745Z,63.59
2023-02-25T22:57:40.067Z,64.13
2023-02-25T23:00:16.118Z,64.45
2023-02-25T23:02:48.414Z,64.91
2023-02-25T23:05:21.598Z,65.21
2023-02-25T23:07:53.959Z,65.56
2023-02-25T23:10:27.312Z,66.15
2023-02-25T23:13:01.521Z,65.61
2023-02-25T23:15:35.048Z,65.34
2023-02-25T23:18:08.840Z,63.91
2023-02-25T23:20:42.005Z,64.07
2023-02-25T23:23:16.745Z,63.89
2023-02-25T23:25:51.464Z,63.56
2023-02-25T23:28:23.729Z,63.03
2023-02-25T23:30:56.031Z,63.44
2023-02-25T23:33:29.133Z,63.28
2023-02-25T23:36:05.464Z,63.57
2023-02-25T23:38:37.812Z,63.46
2023-02-25T23:41:10.156Z,63.09
2023-02-25T23:43:42.447Z,63.32
2023-02-25T23:46:14.865Z,62.73
2023-02-25T23:48:47.473Z,61.58
2023-02-25T23:51:20.377Z,61.79
2023-02-25T23:53:53.470Z,61.73
2023-02-25T23:56:27.258Z,61.59
2023-02-25T23:58:59.990Z,62.00
